KSTL/STL METAR and TAF weather

Enter ICAO airport designator
Station Type Date Time Source
KSTL METAR 2020/04/04 12:11 UTC NOAA

KSTL 041211Z 35009KT 4SM RA BR SCT008 BKN014 OVC035 03/01 A3017 RMK AO2 P0004 T00280011


Station Type Date Time Source
KSTL Decoded METAR 2020/04/04 12:11 UTC NOAA

LAMBERT-ST LOUIS INTERNATIONAL AIRPORT , MO, United States (KSTL) 38-45N 90-22W 171M
Apr 04, 2020 - 08:11 AM EDT / 2020.04.04 1211 UTC
Wind: from the N (350 degrees) at 10 MPH (9 KT):0
Visibility: 4 mile(s):0
Sky conditions: overcast
Weather: rain; mist
Precipitation last hour: 0.04 inches
Temperature: 37.0 F (2.8 C)
Dew Point: 34.0 F (1.1 C)
Relative Humidity: 88%
Pressure (altimeter): 30.17 in. Hg (1021 hPa)
ob: KSTL 041211Z 35009KT 4SM RA BR SCT008 BKN014 OVC035 03/01 A3017 RMK AO2 P0004 T00280011
cycle: 12

Station Type Date Time Source
KSTL TAF 2020/04/04 12:22 UTC NOAA

TAF KSTL 041120Z 0412/0518 33008KT 4SM -SHRA OVC008
FM041300 33008KT P6SM VCSH OVC008
FM041700 35007KT P6SM SCT018
FM050500 VRB03KT P6SM BKN050
FM051100 07005KT P6SM BKN045

Example: see airport list